createdAt,value
2022-09-23T00:06:43.515Z,0.00
2022-09-23T00:07:43.411Z,0.00
2022-09-23T00:08:43.278Z,0.00
2022-09-23T00:09:43.198Z,0.00
2022-09-23T00:10:43.113Z,0.00
2022-09-23T00:11:43.037Z,0.00
2022-09-23T00:12:42.950Z,0.00
2022-09-23T00:13:42.867Z,0.00
2022-09-23T00:14:42.784Z,0.00
2022-09-23T00:15:42.701Z,0.00
2022-09-23T00:16:42.752Z,0.00
2022-09-23T00:17:42.538Z,0.00
2022-09-23T00:18:42.558Z,0.00
2022-09-23T00:19:42.373Z,0.00
2022-09-23T00:20:42.289Z,0.00
2022-09-23T00:21:42.207Z,0.00
2022-09-23T00:22:42.145Z,0.00
2022-09-23T00:23:42.042Z,0.00
2022-09-23T00:24:41.960Z,0.00
2022-09-23T00:25:41.877Z,0.00
2022-09-23T00:26:41.793Z,0.00
2022-09-23T00:27:41.723Z,0.00
2022-09-23T00:28:41.682Z,0.00
2022-09-23T00:29:41.547Z,0.00
2022-09-23T00:30:41.537Z,0.00
2022-09-23T00:31:41.382Z,0.00
2022-09-23T00:32:41.300Z,0.00
2022-09-23T00:33:41.219Z,0.00
2022-09-23T00:34:41.152Z,0.00
2022-09-23T00:35:41.056Z,0.00
2022-09-23T00:36:40.969Z,0.00
2022-09-23T00:37:40.888Z,0.00
2022-09-23T00:38:40.826Z,0.00
2022-09-23T00:39:40.724Z,0.00
2022-09-23T00:40:40.671Z,0.00
2022-09-23T00:41:40.559Z,0.00
2022-09-23T00:42:40.475Z,0.00
2022-09-23T00:43:40.392Z,0.00
2022-09-23T00:44:40.314Z,0.00
2022-09-23T00:45:40.287Z,0.00
2022-09-23T00:46:40.148Z,0.00
2022-09-23T00:47:40.127Z,0.00
2022-09-23T00:48:39.986Z,0.00
2022-09-23T00:49:39.898Z,0.00
2022-09-23T00:50:39.814Z,0.00
2022-09-23T00:51:39.730Z,0.00
2022-09-23T00:52:39.648Z,0.00
2022-09-23T00:53:39.566Z,0.00
2022-09-23T00:54:39.502Z,0.00
2022-09-23T00:55:39.402Z,0.00
2022-09-23T00:56:39.322Z,0.00
2022-09-23T00:57:39.235Z,0.00
2022-09-23T00:58:39.154Z,0.00
2022-09-23T00:59:39.072Z,0.00
2022-09-23T01:00:38.991Z,0.00
2022-09-23T01:01:38.963Z,0.00
2022-09-23T01:02:38.849Z,0.00
2022-09-23T01:03:38.744Z,0.00
2022-09-23T01:04:38.658Z,0.00
2022-09-23T01:05:38.577Z,0.00
2022-09-23T01:06:38.494Z,0.00
2022-09-23T01:07:38.419Z,0.00
2022-09-23T01:08:38.327Z,0.00
2022-09-23T01:09:38.248Z,0.00
2022-09-23T01:10:38.182Z,0.00
2022-09-23T01:11:38.090Z,0.00
2022-09-23T01:12:37.997Z,0.00
2022-09-23T01:13:37.918Z,0.00
2022-09-23T01:14:37.830Z,0.00
2022-09-23T01:15:37.752Z,0.00
2022-09-23T01:16:37.748Z,0.00
2022-09-23T01:17:37.635Z,0.00
2022-09-23T01:18:37.502Z,0.00
2022-09-23T01:19:37.421Z,0.00
2022-09-23T01:20:37.337Z,0.00
2022-09-23T01:21:37.256Z,0.00
2022-09-23T01:22:37.172Z,0.00
2022-09-23T01:23:37.089Z,0.00
2022-09-23T01:24:37.005Z,0.00
2022-09-23T01:25:37.077Z,0.00
2022-09-23T01:26:36.860Z,0.00
2022-09-23T01:27:36.908Z,0.00
2022-09-23T01:28:36.672Z,0.00
2022-09-23T01:29:36.593Z,0.00
2022-09-23T01:30:36.556Z,0.00
2022-09-23T01:31:36.426Z,0.00
2022-09-23T01:32:36.348Z,0.00
2022-09-23T01:33:36.261Z,0.00
2022-09-23T01:34:36.182Z,0.00
2022-09-23T01:35:36.097Z,0.00
2022-09-23T01:36:36.012Z,0.00
2022-09-23T01:37:35.931Z,0.00
2022-09-23T01:38:35.850Z,0.00
2022-09-23T01:39:35.767Z,0.00
2022-09-23T01:40:35.787Z,0.00
2022-09-23T01:41:35.600Z,0.00
2022-09-23T01:42:35.541Z,0.00
2022-09-23T01:43:35.585Z,0.00
2022-09-23T01:44:35.352Z,0.00
2022-09-23T01:45:35.272Z,0.00
2022-09-23T01:46:35.187Z,0.00
2022-09-23T01:47:35.104Z,0.00
2022-09-23T01:48:35.149Z,0.00
2022-09-23T01:49:34.940Z,0.00
2022-09-23T01:50:34.858Z,0.00
2022-09-23T01:51:34.776Z,0.00
2022-09-23T01:52:34.691Z,0.00
2022-09-23T01:53:34.609Z,0.00
2022-09-23T01:54:34.526Z,0.00
2022-09-23T01:55:34.444Z,0.00
2022-09-23T01:56:34.358Z,0.00
2022-09-23T01:57:34.280Z,0.00
2022-09-23T01:58:34.211Z,0.00
2022-09-23T01:59:34.114Z,0.00
2022-09-23T02:00:34.029Z,0.00
2022-09-23T02:01:33.996Z,0.00
2022-09-23T02:02:33.924Z,0.00
2022-09-23T02:03:33.781Z,0.00
2022-09-23T02:04:33.699Z,0.00
2022-09-23T02:05:33.617Z,0.00
2022-09-23T02:06:33.536Z,0.00
2022-09-23T02:07:33.455Z,0.00
2022-09-23T02:08:33.366Z,0.00
2022-09-23T02:09:33.285Z,0.00
2022-09-23T02:10:33.201Z,0.00
2022-09-23T02:11:33.120Z,0.00
2022-09-23T02:12:33.036Z,0.00
2022-09-23T02:13:32.954Z,0.00
2022-09-23T02:14:32.890Z,0.00
2022-09-23T02:15:33.042Z,0.00
2022-09-23T02:16:32.764Z,0.00
2022-09-23T02:17:32.625Z,0.00
2022-09-23T02:18:32.540Z,0.00
2022-09-23T02:19:32.460Z,0.00
2022-09-23T02:20:32.376Z,0.00
2022-09-23T02:21:32.295Z,0.00
2022-09-23T02:22:32.211Z,0.00
2022-09-23T02:23:32.132Z,0.00
2022-09-23T02:24:32.043Z,0.00
2022-09-23T02:25:31.962Z,0.00
2022-09-23T02:26:31.878Z,0.00
2022-09-23T02:27:31.798Z,0.00
2022-09-23T02:28:31.714Z,0.00
2022-09-23T02:29:31.632Z,0.00
2022-09-23T02:30:31.565Z,0.00
2022-09-23T02:31:31.521Z,0.00
2022-09-23T02:32:31.382Z,0.00
2022-09-23T02:33:31.302Z,0.00
2022-09-23T02:34:31.216Z,0.00
2022-09-23T02:35:31.140Z,0.00
2022-09-23T02:36:31.050Z,0.00
2022-09-23T02:37:30.970Z,0.00
2022-09-23T02:38:30.885Z,0.00
2022-09-23T02:39:30.805Z,0.00
2022-09-23T02:40:30.789Z,0.00
2022-09-23T02:41:30.637Z,0.00
2022-09-23T02:42:30.555Z,0.00
2022-09-23T02:43:30.474Z,0.00
2022-09-23T02:44:30.401Z,0.00
2022-09-23T02:45:30.372Z,0.00
2022-09-23T02:46:30.240Z,0.00
2022-09-23T02:47:30.142Z,0.00
2022-09-23T02:48:30.057Z,0.00
2022-09-23T02:49:29.976Z,0.00
2022-09-23T02:50:29.891Z,0.00
2022-09-23T02:51:29.811Z,0.00
2022-09-23T02:52:29.725Z,0.00
2022-09-23T02:53:29.642Z,0.00
2022-09-23T02:54:29.559Z,0.00
2022-09-23T02:55:29.477Z,0.00
2022-09-23T02:56:29.391Z,0.00
2022-09-23T02:57:29.313Z,0.00
2022-09-23T02:58:29.429Z,0.00
2022-09-23T02:59:29.147Z,0.00
2022-09-23T03:00:29.062Z,0.00
2022-09-23T03:01:28.999Z,0.00
2022-09-23T03:02:28.985Z,0.00
2022-09-23T03:03:28.913Z,0.00
2022-09-23T03:04:28.728Z,0.00
2022-09-23T03:05:28.647Z,0.00
2022-09-23T03:06:28.567Z,0.00
2022-09-23T03:07:28.482Z,0.00
2022-09-23T03:08:28.397Z,0.00
2022-09-23T03:09:28.314Z,0.00
2022-09-23T03:10:28.234Z,0.00
2022-09-23T03:11:28.154Z,0.00
2022-09-23T03:12:28.067Z,0.00
2022-09-23T03:13:29.456Z,0.00
2022-09-23T03:14:27.901Z,0.00
2022-09-23T03:15:27.820Z,0.00
2022-09-23T03:16:27.968Z,0.00
2022-09-23T03:17:27.649Z,0.00
2022-09-23T03:18:27.588Z,0.00
2022-09-23T03:19:27.490Z,0.00
2022-09-23T03:20:27.449Z,0.00
2022-09-23T03:21:27.318Z,0.00
2022-09-23T03:22:27.384Z,0.00
2022-09-23T03:23:27.153Z,0.00
2022-09-23T03:24:27.069Z,0.00
2022-09-23T03:25:27.190Z,0.00
2022-09-23T03:26:26.903Z,0.00
2022-09-23T03:27:26.821Z,0.00
2022-09-23T03:28:26.736Z,0.00
2022-09-23T03:29:26.654Z,0.00
2022-09-23T03:30:26.571Z,0.00
2022-09-23T03:31:26.550Z,0.00
2022-09-23T03:32:26.404Z,0.00
2022-09-23T03:33:28.683Z,0.00
2022-09-23T03:34:26.255Z,0.00
2022-09-23T03:35:26.158Z,0.00
2022-09-23T03:36:26.069Z,0.00
2022-09-23T03:37:25.989Z,0.00
2022-09-23T03:38:25.910Z,0.00
2022-09-23T03:39:25.822Z,0.00
2022-09-23T03:40:25.804Z,0.00
2022-09-23T03:41:25.658Z,0.00
2022-09-23T03:42:25.573Z,0.00
2022-09-23T03:43:25.490Z,0.00
2022-09-23T03:44:25.755Z,0.00
2022-09-23T03:45:25.365Z,0.00
2022-09-23T03:46:25.239Z,0.00
2022-09-23T03:47:25.159Z,0.00
2022-09-23T03:48:25.076Z,0.00
2022-09-23T03:49:24.992Z,0.00
2022-09-23T03:50:24.928Z,0.00
2022-09-23T03:51:24.824Z,0.00
2022-09-23T03:52:24.752Z,0.00
2022-09-23T03:53:24.659Z,0.00
2022-09-23T03:54:24.575Z,0.00
2022-09-23T03:55:24.493Z,0.00
2022-09-23T03:56:24.408Z,0.00
2022-09-23T03:57:24.329Z,0.00
2022-09-23T03:58:24.245Z,0.00
2022-09-23T03:59:24.166Z,0.00
2022-09-23T04:00:24.083Z,0.00
2022-09-23T04:01:24.063Z,0.00
2022-09-23T04:02:24.022Z,0.00
2022-09-23T04:03:23.828Z,0.00
2022-09-23T04:04:23.744Z,0.00
2022-09-23T04:05:23.663Z,0.00
2022-09-23T04:06:23.602Z,0.00
2022-09-23T04:07:23.498Z,0.00
2022-09-23T04:08:23.412Z,0.00
2022-09-23T04:09:23.331Z,0.00
2022-09-23T04:10:23.248Z,0.00
2022-09-23T04:11:23.165Z,0.00
2022-09-23T04:12:23.080Z,0.00
2022-09-23T04:13:23.002Z,0.00
2022-09-23T04:14:22.916Z,0.00
2022-09-23T04:15:22.850Z,0.00
2022-09-23T04:16:22.786Z,0.00
2022-09-23T04:17:22.670Z,0.00
2022-09-23T04:18:22.585Z,0.00
2022-09-23T04:19:22.502Z,0.00
2022-09-23T04:20:22.418Z,0.00
2022-09-23T04:21:22.338Z,0.00
2022-09-23T04:22:22.273Z,0.00
2022-09-23T04:23:22.171Z,0.00
2022-09-23T04:24:22.092Z,0.00
2022-09-23T04:25:22.004Z,0.00
2022-09-23T04:26:21.923Z,0.00
2022-09-23T04:27:21.840Z,0.00
2022-09-23T04:28:21.760Z,0.00
2022-09-23T04:29:21.674Z,0.00
2022-09-23T04:30:21.591Z,0.00
2022-09-23T04:31:21.553Z,0.00
2022-09-23T04:32:21.527Z,0.00
2022-09-23T04:35:22.388Z,0.00
2022-09-23T04:36:21.094Z,0.00
2022-09-23T04:37:21.012Z,0.00
2022-09-23T04:38:20.947Z,0.00
2022-09-23T04:39:20.844Z,0.00
2022-09-23T04:41:20.679Z,0.00
2022-09-23T04:42:20.595Z,0.00
2022-09-23T04:43:20.513Z,4.00
2022-09-23T04:44:20.430Z,4.00
2022-09-23T04:55:55.325Z,8.00
2022-09-23T04:56:55.223Z,12.00
2022-09-23T04:57:55.140Z,16.00
2022-09-23T04:58:55.058Z,20.00
2022-09-23T04:59:55.026Z,20.00
2022-09-23T05:00:54.966Z,24.00
2022-09-23T05:01:54.875Z,32.00
2022-09-23T05:02:54.726Z,32.00
2022-09-23T05:03:54.642Z,40.00
2022-09-23T05:04:54.561Z,48.00
2022-09-23T05:05:54.476Z,56.00
2022-09-23T05:06:54.397Z,68.00
2022-09-23T05:07:54.309Z,76.00
2022-09-23T05:08:54.240Z,84.00
2022-09-23T05:09:54.144Z,88.00
2022-09-23T05:10:54.064Z,100.00
2022-09-23T05:11:53.997Z,104.00
2022-09-23T05:12:57.245Z,116.00
2022-09-23T05:13:53.815Z,124.00
2022-09-23T05:14:53.730Z,136.00
2022-09-23T05:15:53.670Z,148.00
2022-09-23T05:17:41.097Z,164.00
2022-09-23T05:18:41.620Z,176.00
2022-09-23T05:19:40.929Z,192.00
2022-09-23T05:20:40.848Z,204.00
2022-09-23T05:21:40.761Z,220.00
2022-09-23T05:22:40.679Z,236.00
2022-09-23T05:23:40.606Z,256.00
2022-09-23T05:24:40.516Z,276.00
2022-09-23T05:25:40.431Z,292.00
2022-09-23T05:26:40.350Z,312.00
2022-09-23T05:27:40.283Z,336.00
2022-09-23T05:28:40.186Z,356.00
2022-09-23T05:29:40.099Z,376.00
2022-09-23T05:30:40.018Z,396.00
2022-09-23T05:32:39.853Z,444.00
2022-09-23T05:33:39.773Z,472.00
2022-09-23T05:34:39.684Z,504.00
2022-09-23T05:35:39.607Z,532.00
2022-09-23T05:36:39.521Z,560.00
2022-09-23T05:37:39.439Z,592.00
2022-09-23T05:38:39.356Z,620.00
2022-09-23T05:39:39.275Z,652.00
2022-09-23T05:40:39.229Z,688.00
2022-09-23T05:41:39.108Z,724.00
2022-09-23T05:42:39.098Z,756.00
2022-09-23T05:50:30.798Z,1040.00
2022-09-23T05:51:31.401Z,1084.00
2022-09-23T05:52:30.613Z,1132.00
2022-09-23T05:53:30.536Z,1180.00
2022-09-23T05:54:30.448Z,1232.00
2022-09-23T05:55:30.368Z,1288.00
2022-09-23T05:56:30.294Z,1348.00
2022-09-23T05:57:30.208Z,1400.00
2022-09-23T05:58:30.121Z,1456.00
2022-09-23T05:59:30.038Z,1504.00
2022-09-23T06:00:29.959Z,1560.00
2022-09-23T06:01:29.918Z,1608.00
2022-09-23T06:02:29.900Z,1656.00
2022-09-23T06:03:29.711Z,1700.00
2022-09-23T06:04:29.628Z,1740.00
2022-09-23T06:05:29.695Z,1776.00
2022-09-23T06:06:29.632Z,1812.00
2022-09-23T06:07:29.386Z,1840.00
2022-09-23T06:08:29.306Z,1856.00
2022-09-23T06:09:32.838Z,1864.00
2022-09-23T06:10:29.139Z,1876.00
2022-09-23T06:11:29.057Z,1872.00
2022-09-23T06:12:28.972Z,1868.00
2022-09-23T06:13:28.891Z,1864.00
2022-09-23T06:14:28.809Z,1860.00
2022-09-23T06:15:28.728Z,1860.00
2022-09-23T06:16:28.669Z,1864.00
2022-09-23T06:17:28.564Z,1872.00
2022-09-23T06:18:28.492Z,1884.00
2022-09-23T06:19:28.405Z,1900.00
2022-09-23T06:20:28.419Z,1924.00
2022-09-23T06:21:28.240Z,1948.00
2022-09-23T06:22:28.178Z,1980.00
2022-09-23T06:23:28.079Z,2012.00
2022-09-23T06:24:31.275Z,2040.00
2022-09-23T06:25:27.918Z,2072.00
2022-09-23T06:26:27.885Z,2108.00
2022-09-23T06:27:27.758Z,2140.00
2022-09-23T06:28:27.675Z,2164.00
2022-09-23T06:29:27.593Z,2188.00
2022-09-23T06:30:27.565Z,2212.00
2022-09-23T06:31:27.498Z,2228.00
2022-09-23T06:32:27.351Z,2244.00
2022-09-23T06:33:35.805Z,2260.00
2022-09-23T06:36:02.157Z,2284.00
2022-09-23T06:37:12.373Z,2292.00
2022-09-23T06:38:02.015Z,2304.00
2022-09-23T06:39:01.915Z,2324.00
2022-09-23T06:40:01.833Z,2332.00
2022-09-23T06:41:01.757Z,2340.00
2022-09-23T06:42:01.679Z,2344.00
2022-09-23T06:43:01.597Z,2352.00
2022-09-23T06:44:01.641Z,2352.00
2022-09-23T06:45:01.437Z,2344.00
2022-09-23T06:46:01.369Z,2344.00
2022-09-23T06:47:01.342Z,2340.00
2022-09-23T06:48:01.198Z,2332.00
2022-09-23T06:49:01.126Z,2328.00
2022-09-23T06:50:01.035Z,2316.00
2022-09-23T06:51:00.958Z,2300.00
2022-09-23T06:52:00.877Z,2288.00
2022-09-23T06:53:00.802Z,2280.00
2022-09-23T06:54:00.740Z,2276.00
2022-09-23T06:55:00.638Z,2264.00
2022-09-23T06:56:00.558Z,2252.00
2022-09-23T06:57:00.481Z,2248.00
2022-09-23T06:58:00.421Z,2240.00
2022-09-23T06:59:00.321Z,2236.00
2022-09-23T07:02:56.055Z,2272.00
2022-09-23T07:03:55.916Z,2280.00
2022-09-23T07:04:55.836Z,2280.00
2022-09-23T07:05:55.757Z,2288.00
2022-09-23T07:06:55.678Z,2296.00
2022-09-23T07:07:55.597Z,2300.00
2022-09-23T07:08:55.520Z,2308.00
2022-09-23T07:09:55.481Z,2312.00
2022-09-23T07:10:55.360Z,2304.00
2022-09-23T07:11:55.383Z,2308.00
2022-09-23T07:12:55.204Z,2308.00
2022-09-23T07:13:55.127Z,2300.00
2022-09-23T07:14:55.046Z,2288.00
2022-09-23T07:15:55.040Z,2288.00
2022-09-23T07:16:54.888Z,2276.00
2022-09-23T07:17:54.811Z,2272.00
2022-09-23T07:18:54.728Z,2272.00
2022-09-23T07:19:54.650Z,2276.00
2022-09-23T07:20:54.580Z,2276.00
2022-09-23T07:21:54.495Z,2280.00
2022-09-23T07:22:54.414Z,2284.00
2022-09-23T07:23:54.588Z,2292.00
2022-09-23T07:24:54.257Z,2300.00
2022-09-23T07:25:54.200Z,2308.00
2022-09-23T07:26:54.098Z,2312.00
2022-09-23T07:27:54.019Z,2316.00
2022-09-23T07:28:53.947Z,2308.00
2022-09-23T07:29:53.866Z,2308.00
2022-09-23T07:30:59.752Z,2312.00
2022-09-23T07:31:59.733Z,2308.00
2022-09-23T07:32:53.689Z,2304.00
2022-09-23T07:33:53.550Z,2296.00
2022-09-23T07:34:53.470Z,2284.00
2022-09-23T07:35:53.414Z,2276.00
2022-09-23T07:36:53.311Z,2276.00
2022-09-23T07:37:53.234Z,2276.00
2022-09-23T07:38:53.206Z,2276.00
2022-09-23T07:39:53.077Z,2272.00
2022-09-23T07:40:53.063Z,2292.00
2022-09-23T07:41:52.937Z,2316.00
2022-09-23T07:42:52.888Z,2336.00
2022-09-23T07:43:52.762Z,2360.00
2022-09-23T07:44:52.682Z,2388.00
2022-09-23T07:45:52.774Z,2408.00
2022-09-23T07:46:52.602Z,2432.00
2022-09-23T07:47:52.447Z,2448.00
2022-09-23T07:48:52.368Z,2460.00
2022-09-23T07:49:52.289Z,2472.00
2022-09-23T07:50:52.210Z,2472.00
2022-09-23T07:51:52.132Z,2484.00
2022-09-23T07:52:52.053Z,2512.00
2022-09-23T07:53:51.977Z,2532.00
2022-09-23T07:54:51.895Z,2540.00
2022-09-23T07:55:51.820Z,2552.00
2022-09-23T07:56:51.741Z,2556.00
2022-09-23T07:57:51.741Z,2580.00
2022-09-23T07:58:51.586Z,2604.00
2022-09-23T07:59:51.507Z,2628.00
2022-09-23T08:00:51.428Z,2652.00
2022-09-23T08:01:51.431Z,2684.00
2022-09-23T08:02:53.092Z,2712.00
2022-09-23T08:03:51.193Z,2720.00
2022-09-23T08:04:51.117Z,2736.00
2022-09-23T08:05:51.038Z,2756.00
2022-09-23T08:06:50.959Z,2764.00
2022-09-23T08:07:50.983Z,2760.00
2022-09-23T08:08:53.314Z,2760.00
2022-09-23T08:09:50.726Z,2748.00
2022-09-23T08:10:50.656Z,2740.00
2022-09-23T08:11:50.577Z,2732.00
2022-09-23T08:12:50.493Z,2744.00
2022-09-23T08:13:50.436Z,2684.00
2022-09-23T08:14:50.339Z,2664.00
2022-09-23T08:15:55.190Z,2648.00
2022-09-23T08:16:50.183Z,2692.00
2022-09-23T08:17:50.107Z,2700.00
2022-09-23T08:18:50.084Z,2696.00
2022-09-23T08:19:49.950Z,2672.00
2022-09-23T08:20:49.872Z,2664.00
2022-09-23T08:21:49.793Z,2648.00
2022-09-23T08:22:49.912Z,2636.00
2022-09-23T08:23:49.643Z,2596.00
2022-09-23T08:24:49.972Z,2596.00
2022-09-23T08:25:49.481Z,2572.00
2022-09-23T08:26:49.403Z,2556.00
2022-09-23T08:27:49.324Z,2528.00
2022-09-23T08:28:49.247Z,2496.00
2022-09-23T08:29:49.252Z,2476.00
2022-09-23T08:30:49.105Z,2436.00
2022-09-23T08:31:49.015Z,2404.00
2022-09-23T08:32:48.939Z,2364.00
2022-09-23T08:33:48.858Z,2328.00
2022-09-23T08:34:48.785Z,2304.00
2022-09-23T08:35:48.705Z,2272.00
2022-09-23T08:36:48.623Z,2236.00
2022-09-23T08:37:48.547Z,2204.00
2022-09-23T08:38:48.470Z,2172.00
2022-09-23T08:39:48.393Z,2144.00
2022-09-23T08:40:48.316Z,2128.00
2022-09-23T08:41:48.238Z,2120.00
2022-09-23T08:42:48.160Z,2116.00
2022-09-23T08:43:48.086Z,2104.00
2022-09-23T08:44:48.005Z,2100.00
2022-09-23T08:45:48.144Z,2092.00
2022-09-23T08:46:47.849Z,2104.00
2022-09-23T08:47:47.800Z,2108.00
2022-09-23T08:48:47.696Z,2116.00
2022-09-23T08:49:47.617Z,2128.00
2022-09-23T08:50:47.539Z,2128.00
2022-09-23T08:51:47.464Z,2124.00
2022-09-23T08:52:47.386Z,2140.00
2022-09-23T08:53:47.311Z,2124.00
2022-09-23T08:58:56.126Z,2120.00
2022-09-23T08:59:55.948Z,2128.00
2022-09-23T09:00:55.907Z,2164.00
2022-09-23T09:01:55.792Z,2184.00
2022-09-23T09:02:55.783Z,2204.00
2022-09-23T09:03:55.639Z,2216.00
2022-09-23T09:04:55.560Z,2236.00
2022-09-23T09:05:55.482Z,2264.00
2022-09-23T09:07:03.395Z,2280.00
2022-09-23T09:07:55.332Z,2292.00
2022-09-23T09:08:55.252Z,2308.00
2022-09-23T09:09:55.172Z,2344.00
2022-09-23T09:10:55.096Z,2348.00
2022-09-23T09:11:55.021Z,2356.00
2022-09-23T09:12:54.946Z,2360.00
2022-09-23T09:13:54.864Z,2376.00
2022-09-23T09:14:54.839Z,2360.00
2022-09-23T09:15:55.194Z,2360.00
2022-09-23T09:17:00.008Z,2360.00
2022-09-23T09:17:54.562Z,2364.00
2022-09-23T09:18:54.476Z,2380.00
2022-09-23T09:19:54.549Z,2420.00
2022-09-23T09:20:54.322Z,2424.00
2022-09-23T09:21:54.251Z,2452.00
2022-09-23T09:22:54.165Z,2464.00
2022-09-23T09:23:54.091Z,2504.00
2022-09-23T09:24:54.014Z,2516.00
2022-09-23T09:25:53.936Z,2552.00
2022-09-23T09:26:53.857Z,2568.00
2022-09-23T09:27:53.780Z,2576.00
2022-09-23T09:28:59.052Z,2596.00
2022-09-23T09:29:53.628Z,2608.00
2022-09-23T09:30:53.588Z,2624.00
2022-09-23T09:31:53.472Z,2660.00
2022-09-23T09:32:53.412Z,2672.00
2022-09-23T09:33:53.316Z,2692.00
2022-09-23T09:34:53.234Z,2704.00
2022-09-23T09:35:53.162Z,2732.00
2022-09-23T09:36:53.083Z,2736.00
2022-09-23T09:37:53.523Z,2748.00
2022-09-23T09:38:52.929Z,2764.00
2022-09-23T09:39:52.851Z,2784.00
2022-09-23T09:40:52.820Z,2784.00
2022-09-23T09:41:52.696Z,2780.00
2022-09-23T09:42:52.619Z,2780.00
2022-09-23T09:43:52.541Z,2732.00
2022-09-23T09:44:52.463Z,2776.00
2022-09-23T09:45:56.760Z,2812.00
2022-09-23T09:46:52.404Z,2852.00
2022-09-23T09:47:52.235Z,2848.00
2022-09-23T09:48:52.173Z,2868.00
2022-09-23T09:49:52.079Z,2876.00
2022-09-23T09:50:52.054Z,2884.00
2022-09-23T09:51:51.925Z,2892.00
2022-09-23T09:52:51.796Z,2888.00
2022-09-23T09:53:51.719Z,2904.00
2022-09-23T09:54:51.640Z,2896.00
2022-09-23T09:55:51.712Z,2892.00
2022-09-23T09:56:51.488Z,2924.00
2022-09-23T09:57:51.409Z,2968.00
2022-09-23T09:58:51.390Z,3040.00
2022-09-23T09:59:51.256Z,3056.00
2022-09-23T10:00:51.181Z,3048.00
2022-09-23T10:01:51.340Z,3068.00
2022-09-23T10:02:51.172Z,3064.00
2022-09-23T10:03:53.222Z,3204.00
2022-09-23T10:04:50.981Z,3144.00
2022-09-23T10:05:50.942Z,3100.00
2022-09-23T10:06:50.867Z,3348.00
2022-09-23T10:07:50.640Z,3384.00
2022-09-23T10:08:50.562Z,3176.00
2022-09-23T10:09:50.498Z,3204.00
2022-09-23T10:10:50.409Z,3204.00
2022-09-23T10:11:50.332Z,3216.00
2022-09-23T10:12:50.254Z,3236.00
2022-09-23T10:13:50.180Z,3344.00
2022-09-23T10:14:50.107Z,3332.00
2022-09-23T10:15:50.027Z,3344.00
2022-09-23T10:16:50.011Z,3368.00
2022-09-23T10:17:50.025Z,3560.00
2022-09-23T10:18:49.797Z,3648.00
2022-09-23T10:19:49.720Z,4580.00
2022-09-23T10:20:49.678Z,3628.00
2022-09-23T10:21:49.570Z,4072.00
2022-09-23T10:22:49.492Z,3792.00
2022-09-23T10:23:49.416Z,6100.00
2022-09-23T10:24:49.336Z,6520.00
2022-09-23T10:25:49.265Z,6140.00
2022-09-23T10:26:49.185Z,5220.00
2022-09-23T10:27:49.110Z,3412.00
2022-09-23T10:28:49.037Z,3808.00
2022-09-23T10:29:48.957Z,3468.00
2022-09-23T10:30:48.925Z,3516.00
2022-09-23T10:31:48.809Z,3872.00
2022-09-23T10:32:48.731Z,4328.00
2022-09-23T10:33:48.656Z,3996.00
2022-09-23T10:34:48.580Z,3796.00
2022-09-23T10:35:48.504Z,3868.00
2022-09-23T10:36:48.446Z,3812.00
2022-09-23T10:37:48.453Z,4004.00
2022-09-23T10:38:48.278Z,4368.00
2022-09-23T10:39:48.253Z,4376.00
2022-09-23T10:40:48.458Z,3612.00
2022-09-23T10:41:48.052Z,3580.00
2022-09-23T10:42:47.976Z,3536.00
2022-09-23T10:43:47.899Z,3472.00
2022-09-23T10:44:47.824Z,3448.00
2022-09-23T10:45:47.786Z,3432.00
2022-09-23T10:46:47.674Z,3420.00
2022-09-23T10:47:47.599Z,3576.00
2022-09-23T10:48:47.823Z,4516.00
2022-09-23T10:49:47.451Z,4540.00
2022-09-23T10:50:47.373Z,3652.00
2022-09-23T10:51:47.302Z,3820.00
2022-09-23T10:52:47.240Z,4152.00
2022-09-23T10:53:47.152Z,3600.00
2022-09-23T10:54:47.073Z,7260.00
2022-09-23T10:55:46.997Z,3852.00
2022-09-23T10:56:46.923Z,7640.00
2022-09-23T10:57:46.851Z,5016.00
2022-09-23T10:58:46.771Z,11272.00
2022-09-23T11:01:54.175Z,7700.00
2022-09-23T11:02:54.049Z,8436.00
2022-09-23T11:03:53.970Z,6500.00
2022-09-23T11:04:53.972Z,5664.00
2022-09-23T11:05:54.023Z,5112.00
2022-09-23T11:06:53.748Z,5848.00
2022-09-23T11:07:53.707Z,7944.00
2022-09-23T11:08:53.748Z,8352.00
2022-09-23T11:09:53.623Z,7868.00
2022-09-23T11:10:54.259Z,5828.00
2022-09-23T11:11:53.373Z,10188.00
2022-09-23T11:12:53.299Z,14644.00
2022-09-23T11:13:54.688Z,12372.00
2022-09-23T11:14:55.772Z,8188.00
2022-09-23T11:15:53.179Z,9212.00
2022-09-23T11:16:53.130Z,8540.00
2022-09-23T11:17:52.925Z,5752.00
2022-09-23T11:18:53.459Z,8000.00
2022-09-23T11:19:55.397Z,6400.00
2022-09-23T11:20:53.512Z,9568.00
2022-09-23T11:23:30.172Z,17568.00
2022-09-23T11:26:12.673Z,11172.00
2022-09-23T11:27:12.416Z,20928.00
2022-09-23T11:28:12.340Z,38944.00
2022-09-23T11:29:57.404Z,44384.00
2022-09-23T11:30:54.761Z,53376.00
2022-09-23T11:31:59.288Z,54592.00
2022-09-23T11:32:57.182Z,56544.00
2022-09-23T11:33:54.456Z,57856.00
2022-09-23T11:34:55.117Z,60160.00
2022-09-23T11:35:54.311Z,60672.00
2022-09-23T11:36:57.061Z,60320.00
2022-09-23T11:37:55.177Z,61184.00
2022-09-23T11:38:54.127Z,59616.00
2022-09-23T11:39:54.023Z,57920.00
2022-09-23T11:40:53.975Z,44128.00
2022-09-23T11:42:46.387Z,56768.00
2022-09-23T11:43:46.309Z,58336.00
2022-09-23T11:44:47.252Z,58688.00
2022-09-23T11:45:46.226Z,61536.00
2022-09-23T11:46:46.099Z,61920.00
2022-09-23T11:47:46.029Z,62752.00
2022-09-23T11:48:45.963Z,63872.00
2022-09-23T11:49:48.513Z,64640.00
2022-09-23T11:50:45.825Z,62176.00
2022-09-23T11:51:48.376Z,64960.00
2022-09-23T11:52:45.685Z,64000.00
2022-09-23T11:53:45.620Z,63488.00
2022-09-23T11:54:45.582Z,61824.00
2022-09-23T11:55:54.465Z,63840.00
2022-09-23T11:56:48.457Z,61824.00
2022-09-23T11:57:49.405Z,61728.00
2022-09-23T11:58:49.448Z,57952.00
2022-09-23T11:59:45.285Z,59456.00
2022-09-23T12:00:50.040Z,58464.00
2022-09-23T12:01:45.769Z,56672.00
2022-09-23T12:14:16.804Z,46560.00
2022-09-23T12:15:16.715Z,36544.00
2022-09-23T12:16:16.700Z,53984.00
2022-09-23T12:17:16.584Z,52768.00
2022-09-23T12:18:20.816Z,54208.00
2022-09-23T12:19:16.553Z,50688.00
2022-09-23T12:20:16.387Z,45728.00
2022-09-23T12:21:38.763Z,44064.00
2022-09-23T12:22:16.257Z,39584.00
2022-09-23T12:23:16.195Z,40640.00
2022-09-23T12:24:19.137Z,40096.00
2022-09-23T12:25:16.070Z,40672.00
2022-09-23T12:26:16.200Z,40864.00
2022-09-23T12:27:15.971Z,40672.00
2022-09-23T12:28:15.867Z,41056.00
2022-09-23T12:29:16.069Z,40032.00
2022-09-23T12:30:15.757Z,36320.00
2022-09-23T12:31:15.751Z,33824.00
2022-09-23T12:32:15.812Z,33408.00
2022-09-23T12:33:15.628Z,34400.00
2022-09-23T12:34:15.666Z,34688.00
2022-09-23T12:35:15.415Z,36224.00
2022-09-23T12:36:15.586Z,34336.00
2022-09-23T12:37:15.282Z,31168.00
2022-09-23T12:38:15.418Z,29632.00
2022-09-23T12:39:15.189Z,29600.00
2022-09-23T12:40:15.137Z,26304.00
2022-09-23T12:41:15.063Z,27200.00
2022-09-23T12:42:14.992Z,31104.00
2022-09-23T12:43:14.928Z,34112.00
2022-09-23T12:44:14.866Z,33376.00
2022-09-23T12:45:17.384Z,32736.00
2022-09-23T12:46:14.760Z,33376.00
2022-09-23T12:47:14.876Z,30752.00
2022-09-23T12:48:14.566Z,30080.00
2022-09-23T12:49:14.502Z,28864.00
2022-09-23T12:50:17.708Z,28736.00
2022-09-23T12:51:14.370Z,28832.00
2022-09-23T12:52:14.606Z,31200.00
2022-09-23T12:53:14.240Z,31008.00
2022-09-23T12:54:14.176Z,31520.00
2022-09-23T12:55:14.110Z,31168.00
2022-09-23T12:56:14.050Z,31648.00
2022-09-23T12:57:13.981Z,32096.00
2022-09-23T12:58:13.914Z,31264.00
2022-09-23T12:59:13.851Z,28928.00
2022-09-23T13:00:13.786Z,21024.00
2022-09-23T13:01:13.916Z,25504.00
2022-09-23T13:02:13.842Z,28096.00
2022-09-23T13:03:13.588Z,29312.00
2022-09-23T13:04:13.521Z,32800.00
2022-09-23T13:05:13.458Z,32352.00
2022-09-23T13:06:13.391Z,30592.00
2022-09-23T13:07:13.324Z,31680.00
2022-09-23T13:08:13.257Z,31616.00
2022-09-23T13:09:13.193Z,28128.00
2022-09-23T13:10:13.129Z,27488.00
2022-09-23T13:11:13.060Z,27712.00
2022-09-23T13:12:12.992Z,27264.00
2022-09-23T13:13:12.927Z,25248.00
2022-09-23T13:14:12.860Z,22944.00
2022-09-23T13:15:12.798Z,23424.00
2022-09-23T13:16:12.755Z,22016.00
2022-09-23T13:17:12.665Z,20608.00
2022-09-23T13:18:12.634Z,19552.00
2022-09-23T13:19:12.532Z,20992.00
2022-09-23T13:21:12.434Z,23392.00
2022-09-23T13:22:12.362Z,20992.00
2022-09-23T13:23:12.260Z,19488.00
2022-09-23T13:24:12.193Z,25152.00
2022-09-23T13:25:12.123Z,27232.00